createdAt,value
2017-11-15T00:01:15.425Z,30.67
2017-11-15T00:03:43.310Z,33.20
2017-11-15T00:06:11.165Z,40.20
2017-11-15T00:08:38.996Z,40.40
2017-11-15T00:11:06.818Z,40.27
2017-11-15T00:13:34.686Z,21.97
2017-11-15T00:16:02.531Z,42.13
2017-11-15T00:18:30.369Z,39.20
2017-11-15T00:20:58.202Z,45.90
2017-11-15T00:23:26.059Z,44.90
2017-11-15T00:25:53.892Z,43.30
2017-11-15T00:28:21.794Z,43.13
2017-11-15T00:30:49.646Z,35.63
2017-11-15T00:33:17.497Z,35.57
2017-11-15T00:35:45.350Z,36.47
2017-11-15T00:38:13.181Z,41.67
2017-11-15T00:40:41.025Z,43.47
2017-11-15T00:43:08.861Z,43.40
2017-11-15T00:45:36.703Z,42.63
2017-11-15T00:48:04.537Z,43.67
2017-11-15T00:50:32.391Z,38.37
2017-11-15T00:53:00.212Z,37.70
2017-11-15T00:55:28.077Z,39.63
2017-11-15T00:57:55.986Z,40.93
2017-11-15T01:00:23.826Z,40.33
2017-11-15T01:02:51.667Z,30.90
2017-11-15T01:05:19.523Z,45.27
2017-11-15T01:07:47.378Z,40.60
2017-11-15T01:10:15.203Z,44.93
2017-11-15T01:12:43.037Z,36.63
2017-11-15T01:15:10.867Z,44.40
2017-11-15T01:17:38.708Z,46.77
2017-11-15T01:20:06.537Z,46.63
2017-11-15T01:22:34.365Z,44.97
2017-11-15T01:25:02.208Z,44.93
2017-11-15T01:27:30.083Z,46.07
2017-11-15T01:29:57.913Z,46.27
2017-11-15T01:32:25.773Z,52.90
2017-11-15T01:34:53.640Z,48.47
2017-11-15T01:37:21.523Z,49.77
2017-11-15T01:39:49.403Z,43.60
2017-11-15T01:42:17.265Z,47.17
2017-11-15T01:44:45.125Z,48.70
2017-11-15T01:47:12.999Z,48.73
2017-11-15T01:49:40.817Z,48.00
2017-11-15T01:52:08.669Z,47.73
2017-11-15T01:54:36.519Z,48.63
2017-11-15T01:57:04.373Z,53.10
2017-11-15T01:59:32.272Z,53.33
2017-11-15T02:02:00.131Z,56.03
2017-11-15T02:04:27.999Z,50.57
2017-11-15T02:06:55.855Z,56.57
2017-11-15T02:09:23.728Z,55.30
2017-11-15T02:11:51.578Z,54.20
2017-11-15T02:14:19.403Z,61.43
2017-11-15T02:16:47.285Z,37.77
2017-11-15T02:19:15.113Z,54.20
2017-11-15T02:21:42.939Z,57.87
2017-11-15T02:24:10.793Z,59.80
2017-11-15T02:26:38.621Z,60.07
2017-11-15T02:29:06.511Z,61.90
2017-11-15T02:31:34.349Z,56.47
2017-11-15T02:34:02.195Z,60.33
2017-11-15T02:36:30.023Z,61.57
2017-11-15T02:38:57.847Z,59.93
2017-11-15T02:41:25.689Z,58.10
2017-11-15T02:43:53.528Z,61.80
2017-11-15T02:46:21.389Z,55.70
2017-11-15T02:48:49.197Z,62.90
2017-11-15T02:51:17.004Z,64.83
2017-11-15T02:53:44.832Z,52.27
2017-11-15T02:56:12.657Z,63.30
2017-11-15T02:58:40.522Z,63.90
2017-11-15T03:01:08.355Z,60.77
2017-11-15T03:03:36.224Z,62.07
2017-11-15T03:06:04.023Z,56.50
2017-11-15T03:08:31.888Z,61.90
2017-11-15T03:10:59.713Z,61.40
2017-11-15T03:13:27.566Z,39.10
2017-11-15T03:15:55.395Z,48.77
2017-11-15T03:18:23.226Z,44.80
2017-11-15T03:20:51.081Z,47.10
2017-11-15T03:23:18.947Z,48.70
2017-11-15T03:25:46.799Z,43.80
2017-11-15T03:28:14.652Z,42.40
2017-11-15T03:30:42.492Z,43.30
2017-11-15T03:33:10.358Z,41.53
2017-11-15T03:35:38.227Z,40.23
2017-11-15T03:38:06.074Z,39.57
2017-11-15T03:40:33.919Z,38.97
2017-11-15T03:43:01.789Z,37.90
2017-11-15T03:45:29.653Z,26.53
2017-11-15T03:47:57.485Z,36.00
2017-11-15T03:50:25.328Z,36.90
2017-11-15T03:52:53.194Z,37.67
2017-11-15T03:55:21.077Z,37.20
2017-11-15T03:57:48.894Z,38.30
2017-11-15T04:00:16.729Z,37.00
2017-11-15T04:02:45.353Z,39.07
2017-11-15T04:05:13.234Z,38.00
2017-11-15T04:07:41.046Z,34.80
2017-11-15T04:10:08.884Z,42.27
2017-11-15T04:12:36.710Z,39.10
2017-11-15T04:15:04.566Z,39.23
2017-11-15T04:17:32.403Z,43.10
2017-11-15T04:20:00.250Z,44.00
2017-11-15T04:22:28.074Z,47.57
2017-11-15T04:24:55.903Z,41.83
2017-11-15T04:27:23.717Z,41.07
2017-11-15T04:29:51.561Z,50.03
2017-11-15T04:32:19.404Z,37.77
2017-11-15T04:34:47.255Z,46.50
2017-11-15T04:37:15.125Z,45.60
2017-11-15T04:39:42.966Z,43.40
2017-11-15T04:42:10.782Z,40.10
2017-11-15T04:44:38.604Z,44.37
2017-11-15T04:47:06.549Z,38.50
2017-11-15T04:49:34.409Z,40.90
2017-11-15T04:52:02.293Z,36.40
2017-11-15T04:54:30.130Z,37.60
2017-11-15T04:56:57.972Z,34.90
2017-11-15T04:59:25.838Z,34.93
2017-11-15T05:01:53.713Z,30.70
2017-11-15T05:04:21.537Z,31.73
2017-11-15T05:06:49.381Z,29.20
2017-11-15T05:09:17.189Z,26.70
2017-11-15T05:11:45.018Z,32.30
2017-11-15T05:14:12.889Z,31.80
2017-11-15T05:16:40.702Z,32.17
2017-11-15T05:19:08.531Z,33.97
2017-11-15T05:21:36.382Z,30.07
2017-11-15T05:24:04.202Z,23.47
2017-11-15T05:26:32.068Z,31.97
2017-11-15T05:28:59.889Z,35.03
2017-11-15T05:31:27.738Z,30.73
2017-11-15T05:33:55.573Z,31.30
2017-11-15T05:36:23.394Z,30.33
2017-11-15T05:38:51.210Z,32.97
2017-11-15T05:41:19.035Z,30.20
2017-11-15T05:43:46.850Z,29.10
2017-11-15T05:46:14.689Z,17.37
2017-11-15T05:48:42.525Z,33.03
2017-11-15T05:51:10.338Z,33.20
2017-11-15T05:53:38.150Z,31.87
2017-11-15T05:56:05.989Z,32.03
2017-11-15T05:58:33.822Z,32.60
2017-11-15T06:01:01.683Z,32.90
2017-11-15T06:03:29.687Z,33.57
2017-11-15T06:05:57.526Z,32.03
2017-11-15T06:08:25.355Z,35.33
2017-11-15T06:10:53.255Z,29.87
2017-11-15T06:13:21.098Z,23.57
2017-11-15T06:15:49.104Z,32.00
2017-11-15T06:18:17.046Z,32.27
2017-11-15T06:20:45.943Z,34.67
2017-11-15T06:23:13.883Z,20.87
2017-11-15T06:25:41.877Z,34.87
2017-11-15T06:28:09.917Z,29.20
2017-11-15T06:30:40.139Z,37.23
2017-11-15T06:33:08.361Z,36.10
2017-11-15T06:35:36.514Z,28.20
2017-11-15T06:38:04.442Z,32.23
2017-11-15T06:40:34.278Z,37.13
2017-11-15T06:43:02.097Z,37.77
2017-11-15T06:45:29.973Z,35.60
2017-11-15T06:47:57.810Z,29.73
2017-11-15T06:50:25.630Z,37.87
2017-11-15T06:52:53.466Z,41.67
2017-11-15T06:55:21.289Z,31.93
2017-11-15T06:57:49.096Z,32.40
2017-11-15T07:00:16.943Z,33.00
2017-11-15T07:02:44.746Z,31.93
2017-11-15T07:05:12.561Z,32.70
2017-11-15T07:07:40.373Z,28.60
2017-11-15T07:10:08.186Z,29.40
2017-11-15T07:12:36.024Z,29.03
2017-11-15T07:15:03.842Z,30.43
2017-11-15T07:17:31.683Z,29.83
2017-11-15T07:19:59.506Z,29.40
2017-11-15T07:22:27.322Z,26.23
2017-11-15T07:24:55.194Z,30.63
2017-11-15T07:27:23.029Z,32.93
2017-11-15T07:29:50.859Z,25.90
2017-11-15T07:32:18.693Z,27.43
2017-11-15T07:34:46.525Z,26.30
2017-11-15T07:37:14.344Z,25.33
2017-11-15T07:39:42.209Z,28.80
2017-11-15T07:42:10.038Z,24.17
2017-11-15T07:44:37.874Z,24.70
2017-11-15T07:47:05.726Z,22.80
2017-11-15T07:49:33.553Z,28.30
2017-11-15T07:52:01.369Z,25.63
2017-11-15T07:54:29.185Z,29.60
2017-11-15T07:56:57.036Z,30.97
2017-11-15T07:59:24.867Z,27.57
2017-11-15T08:01:52.706Z,33.27
2017-11-15T08:04:20.534Z,26.30
2017-11-15T08:06:48.359Z,27.37
2017-11-15T08:09:16.182Z,31.67
2017-11-15T08:11:44.006Z,33.00
2017-11-15T08:14:11.841Z,32.20
2017-11-15T08:16:39.686Z,35.00
2017-11-15T08:19:07.503Z,29.47
2017-11-15T08:21:35.354Z,28.77
2017-11-15T08:24:03.182Z,36.87
2017-11-15T08:26:31.042Z,38.30
2017-11-15T08:28:58.861Z,35.93
2017-11-15T08:31:26.706Z,34.70
2017-11-15T08:33:54.571Z,15.90
2017-11-15T08:36:22.386Z,25.00
2017-11-15T08:38:50.224Z,29.10
2017-11-15T08:41:18.064Z,25.70
2017-11-15T08:43:45.886Z,30.40
2017-11-15T08:46:13.726Z,28.47
2017-11-15T08:48:41.569Z,31.20
2017-11-15T08:51:09.382Z,29.07
2017-11-15T08:53:37.207Z,32.20
2017-11-15T08:56:05.056Z,29.20
2017-11-15T08:58:32.926Z,30.23
2017-11-15T09:01:00.789Z,27.90
2017-11-15T09:03:28.640Z,29.17
2017-11-15T09:05:56.456Z,24.87
2017-11-15T09:08:24.292Z,27.20
2017-11-15T09:10:52.118Z,24.20
2017-11-15T09:13:19.944Z,28.87
2017-11-15T09:15:47.767Z,26.93
2017-11-15T09:18:15.577Z,22.97
2017-11-15T09:20:43.420Z,19.10
2017-11-15T09:23:11.295Z,24.67
2017-11-15T09:25:39.121Z,17.87
2017-11-15T09:28:07.018Z,26.03
2017-11-15T09:30:34.846Z,21.10
2017-11-15T09:33:02.666Z,24.20
2017-11-15T09:35:30.486Z,24.20
2017-11-15T09:37:58.337Z,26.00
2017-11-15T09:40:26.152Z,23.67
2017-11-15T09:42:53.969Z,23.77
2017-11-15T09:45:21.792Z,25.07
2017-11-15T09:47:49.641Z,25.90
2017-11-15T09:50:17.486Z,13.83
2017-11-15T09:52:45.328Z,26.50
2017-11-15T09:55:13.153Z,28.23
2017-11-15T09:57:40.998Z,25.53
2017-11-15T10:00:08.834Z,28.47
2017-11-15T10:02:36.653Z,29.40
2017-11-15T10:05:04.469Z,28.40
2017-11-15T10:07:32.285Z,20.57
2017-11-15T10:10:00.103Z,29.37
2017-11-15T10:12:27.959Z,29.80
2017-11-15T10:14:55.817Z,29.43
2017-11-15T10:17:23.670Z,29.10
2017-11-15T10:19:51.518Z,31.30
2017-11-15T10:22:19.349Z,34.53
2017-11-15T10:24:47.193Z,32.97
2017-11-15T10:27:15.067Z,31.03
2017-11-15T10:29:42.929Z,36.30
2017-11-15T10:32:10.750Z,35.63
2017-11-15T10:34:38.610Z,39.17
2017-11-15T10:37:06.434Z,37.97
2017-11-15T10:39:34.253Z,34.47
2017-11-15T10:42:02.082Z,38.67
2017-11-15T10:44:29.897Z,33.40
2017-11-15T10:46:57.753Z,37.37
2017-11-15T10:49:25.574Z,37.17
2017-11-15T10:51:53.415Z,33.73
2017-11-15T10:54:21.325Z,30.97
2017-11-15T10:56:49.163Z,36.00
2017-11-15T10:59:17.034Z,40.23
2017-11-15T11:01:44.868Z,39.97
2017-11-15T11:04:12.718Z,40.27
2017-11-15T11:06:40.545Z,36.30
2017-11-15T11:09:08.382Z,32.57
2017-11-15T11:11:36.222Z,37.10
2017-11-15T11:14:04.082Z,36.40
2017-11-15T11:16:31.934Z,33.47
2017-11-15T11:18:59.778Z,38.90
2017-11-15T11:21:27.617Z,28.30
2017-11-15T11:23:55.457Z,36.67
2017-11-15T11:26:23.303Z,35.77
2017-11-15T11:28:51.146Z,35.17
2017-11-15T11:31:19.002Z,32.10
2017-11-15T11:33:46.846Z,32.10
2017-11-15T11:36:14.769Z,37.43
2017-11-15T11:38:42.601Z,36.70
2017-11-15T11:41:10.446Z,34.80
2017-11-15T11:43:38.322Z,25.67
2017-11-15T11:46:06.165Z,32.83
2017-11-15T11:48:34.026Z,32.63
2017-11-15T11:51:01.849Z,24.77
2017-11-15T11:53:29.704Z,32.23
2017-11-15T11:55:57.533Z,27.77
2017-11-15T11:58:25.398Z,20.00
2017-11-15T12:00:53.284Z,27.87
2017-11-15T12:03:21.133Z,34.10
2017-11-15T12:05:48.970Z,24.33
2017-11-15T12:08:16.828Z,29.00
2017-11-15T12:10:44.649Z,31.60
2017-11-15T12:13:12.493Z,29.17
2017-11-15T12:15:40.345Z,32.43
2017-11-15T12:18:08.187Z,32.57
2017-11-15T12:20:36.043Z,31.20
2017-11-15T12:23:03.881Z,31.47
2017-11-15T12:25:31.702Z,26.20
2017-11-15T12:27:59.556Z,32.47
2017-11-15T12:30:27.392Z,29.37
2017-11-15T12:32:55.227Z,19.13
2017-11-15T12:35:23.049Z,20.57
2017-11-15T12:37:50.866Z,24.40
2017-11-15T12:40:18.710Z,29.43
2017-11-15T12:42:46.627Z,28.80
2017-11-15T12:45:14.441Z,29.23
2017-11-15T12:47:42.290Z,27.57
2017-11-15T12:50:10.131Z,29.20
2017-11-15T12:52:37.991Z,28.10
2017-11-15T12:55:05.839Z,27.37
2017-11-15T12:57:33.718Z,25.83
2017-11-15T13:00:01.614Z,26.23
2017-11-15T13:02:29.486Z,26.17
2017-11-15T13:04:57.378Z,20.80
2017-11-15T13:07:25.208Z,27.30
2017-11-15T13:09:53.070Z,24.93
2017-11-15T13:12:20.905Z,26.97
2017-11-15T13:14:48.749Z,26.57
2017-11-15T13:17:16.590Z,24.87
2017-11-15T13:19:44.422Z,22.57
2017-11-15T13:22:12.234Z,20.57
2017-11-15T13:24:40.067Z,23.23
2017-11-15T13:27:07.905Z,24.17
2017-11-15T13:29:35.754Z,22.67
2017-11-15T13:32:03.598Z,22.90
2017-11-15T13:34:31.463Z,22.90
2017-11-15T13:36:59.294Z,21.20
2017-11-15T13:39:27.137Z,21.40
2017-11-15T13:41:55.013Z,21.97
2017-11-15T13:44:22.874Z,23.10
2017-11-15T13:46:50.718Z,21.30
2017-11-15T13:49:18.647Z,19.17
2017-11-15T13:51:46.450Z,20.43
2017-11-15T13:54:14.313Z,21.30
2017-11-15T13:56:42.238Z,21.97
2017-11-15T13:59:10.081Z,20.97
2017-11-15T14:01:37.941Z,19.53
2017-11-15T14:04:05.775Z,22.80
2017-11-15T14:06:33.601Z,20.90
2017-11-15T14:09:01.446Z,20.40
2017-11-15T14:11:29.273Z,21.03
2017-11-15T14:13:57.187Z,19.43
2017-11-15T14:16:25.006Z,19.30
2017-11-15T14:18:52.829Z,20.63
2017-11-15T14:21:20.678Z,20.30
2017-11-15T14:23:48.502Z,20.00
2017-11-15T14:26:16.338Z,19.30
2017-11-15T14:28:44.169Z,19.37
2017-11-15T14:31:12.006Z,19.33
2017-11-15T14:33:39.856Z,19.73
2017-11-15T14:36:07.686Z,20.70
2017-11-15T14:38:35.496Z,19.00
2017-11-15T14:41:03.356Z,19.93
2017-11-15T14:43:31.181Z,19.63
2017-11-15T14:45:59.048Z,19.40
2017-11-15T14:48:26.906Z,18.77
2017-11-15T14:50:54.787Z,19.80
2017-11-15T14:53:22.622Z,19.07
2017-11-15T14:55:50.483Z,19.53
2017-11-15T14:58:18.310Z,20.33
2017-11-15T15:00:46.153Z,22.80
2017-11-15T15:03:13.998Z,21.73
2017-11-15T15:05:41.844Z,22.33
2017-11-15T15:08:09.658Z,22.27
2017-11-15T15:10:37.516Z,22.37
2017-11-15T15:13:05.383Z,24.47
2017-11-15T15:15:33.226Z,24.30
2017-11-15T15:18:01.087Z,22.73
2017-11-15T15:20:28.943Z,22.83
2017-11-15T15:22:56.768Z,22.67
2017-11-15T15:25:24.661Z,23.30
2017-11-15T15:27:52.526Z,23.90
2017-11-15T15:30:20.358Z,22.73
2017-11-15T15:32:48.203Z,24.57
2017-11-15T15:35:16.049Z,22.97
2017-11-15T15:37:43.938Z,25.40
2017-11-15T15:40:11.738Z,23.83
2017-11-15T15:42:39.559Z,24.87
2017-11-15T15:45:07.436Z,22.13
2017-11-15T15:47:35.286Z,25.40
2017-11-15T15:50:03.303Z,24.83
2017-11-15T15:52:31.202Z,26.23
2017-11-15T15:54:59.030Z,23.20
2017-11-15T15:57:26.918Z,26.37
2017-11-15T15:59:54.828Z,26.60
2017-11-15T16:02:22.668Z,22.73
2017-11-15T16:04:50.496Z,24.30
2017-11-15T16:07:18.305Z,21.57
2017-11-15T16:09:46.154Z,20.97
2017-11-15T16:12:14.037Z,20.80
2017-11-15T16:14:41.904Z,21.10
2017-11-15T16:17:09.771Z,21.33
2017-11-15T16:19:37.604Z,22.23
2017-11-15T16:22:05.507Z,22.93
2017-11-15T16:24:33.333Z,22.07
2017-11-15T16:27:01.193Z,24.50
2017-11-15T16:29:29.021Z,25.40
2017-11-15T16:31:56.866Z,25.97
2017-11-15T16:34:24.697Z,29.93
2017-11-15T16:36:52.577Z,28.93
2017-11-15T16:39:20.428Z,27.10
2017-11-15T16:41:48.301Z,28.90
2017-11-15T16:44:16.188Z,30.60
2017-11-15T16:46:44.017Z,31.20
2017-11-15T16:49:11.891Z,30.77
2017-11-15T16:51:39.785Z,30.80
2017-11-15T16:54:07.643Z,34.40
2017-11-15T16:56:36.540Z,36.17
2017-11-15T16:59:04.472Z,35.10
2017-11-15T17:01:32.316Z,32.20
2017-11-15T17:04:00.158Z,31.87
2017-11-15T17:06:27.975Z,34.40
2017-11-15T17:08:55.860Z,34.63
2017-11-15T17:11:23.726Z,36.20
2017-11-15T17:13:51.571Z,34.33
2017-11-15T17:16:19.448Z,36.90
2017-11-15T17:18:47.277Z,33.50
2017-11-15T17:21:15.120Z,35.00
2017-11-15T17:23:42.990Z,35.57
2017-11-15T17:26:10.863Z,34.33
2017-11-15T17:28:38.716Z,34.37
2017-11-15T17:31:06.651Z,34.90
2017-11-15T17:36:39.727Z,36.30
2017-11-15T17:39:07.592Z,33.07
2017-11-15T17:41:35.416Z,35.03
2017-11-15T17:44:03.255Z,32.87
2017-11-15T17:46:31.114Z,36.60
2017-11-15T17:48:58.959Z,35.83
2017-11-15T17:51:26.803Z,35.97
2017-11-15T17:53:54.621Z,36.97
2017-11-15T17:56:22.481Z,37.63
2017-11-15T17:58:50.310Z,33.97
2017-11-15T18:01:18.282Z,32.13
2017-11-15T18:03:46.320Z,34.30
2017-11-15T18:06:14.198Z,36.43
2017-11-15T18:08:42.054Z,35.70
2017-11-15T18:11:09.971Z,36.27
2017-11-15T18:13:37.821Z,38.60
2017-11-15T18:16:05.677Z,35.20
2017-11-15T18:18:33.509Z,36.67
2017-11-15T18:21:01.375Z,36.03
2017-11-15T18:23:29.222Z,38.23
2017-11-15T18:25:57.074Z,36.43
2017-11-15T18:28:25.628Z,36.83
2017-11-15T18:30:53.919Z,35.90
2017-11-15T18:33:21.826Z,36.13
2017-11-15T18:35:49.697Z,32.00
2017-11-15T18:38:17.539Z,27.53
2017-11-15T18:40:45.391Z,29.77
2017-11-15T18:43:13.250Z,35.00
2017-11-15T18:45:41.153Z,31.10
2017-11-15T18:48:09.010Z,33.90
2017-11-15T18:50:36.889Z,36.47
2017-11-15T18:53:04.734Z,34.77
2017-11-15T18:55:32.596Z,37.90
2017-11-15T18:58:00.538Z,37.23
2017-11-15T19:00:28.365Z,39.40
2017-11-15T19:02:56.226Z,40.07
2017-11-15T19:05:24.038Z,39.17
2017-11-15T19:07:51.895Z,42.23
2017-11-15T19:10:19.771Z,40.97
2017-11-15T19:12:47.589Z,42.90
2017-11-15T19:15:15.425Z,40.97
2017-11-15T19:17:43.282Z,41.83
2017-11-15T19:20:11.162Z,39.37
2017-11-15T19:22:38.999Z,40.47
2017-11-15T19:25:06.873Z,40.77
2017-11-15T19:27:34.685Z,38.10
2017-11-15T19:30:02.548Z,38.37
2017-11-15T19:32:30.375Z,38.43
2017-11-15T19:34:58.262Z,38.13
2017-11-15T19:37:26.050Z,35.57
2017-11-15T19:39:53.857Z,38.20
2017-11-15T19:42:21.705Z,39.27
2017-11-15T19:44:49.557Z,37.20
2017-11-15T19:47:17.402Z,40.93
2017-11-15T19:49:45.265Z,35.43
2017-11-15T19:52:13.158Z,33.30
2017-11-15T19:54:41.009Z,32.33
2017-11-15T19:57:08.870Z,33.00
2017-11-15T19:59:36.755Z,35.73
2017-11-15T20:02:04.605Z,34.47
2017-11-15T20:04:32.481Z,34.47
2017-11-15T20:07:00.337Z,33.77
2017-11-15T20:09:28.246Z,33.60
2017-11-15T20:11:56.113Z,33.93
2017-11-15T20:14:23.941Z,31.60
2017-11-15T20:16:51.787Z,29.03
2017-11-15T20:19:19.631Z,31.87
2017-11-15T20:21:47.459Z,32.73
2017-11-15T20:24:15.277Z,30.10
2017-11-15T20:26:43.105Z,29.60
2017-11-15T20:29:10.915Z,30.27
2017-11-15T20:31:38.742Z,29.17
2017-11-15T20:34:06.574Z,30.70
2017-11-15T20:36:34.458Z,31.40
2017-11-15T20:39:02.290Z,31.33
2017-11-15T20:41:30.158Z,35.80
2017-11-15T20:43:58.033Z,32.63
2017-11-15T20:46:25.915Z,34.23
2017-11-15T20:48:53.793Z,35.00
2017-11-15T20:51:21.653Z,33.53
2017-11-15T20:53:49.471Z,34.40
2017-11-15T20:56:17.322Z,34.00
2017-11-15T20:58:45.165Z,34.10
2017-11-15T21:01:13.013Z,33.63
2017-11-15T21:03:40.826Z,36.20
2017-11-15T21:06:08.664Z,33.90
2017-11-15T21:08:36.491Z,34.57
2017-11-15T21:11:04.335Z,34.20
2017-11-15T21:13:32.143Z,34.27
2017-11-15T21:15:59.977Z,34.83
2017-11-15T21:18:27.870Z,34.77
2017-11-15T21:20:55.726Z,32.90
2017-11-15T21:23:23.564Z,35.20
2017-11-15T21:25:51.394Z,37.40
2017-11-15T21:28:19.222Z,39.47
2017-11-15T21:30:47.031Z,39.30
2017-11-15T21:33:14.903Z,38.87
2017-11-15T21:35:42.734Z,37.60
2017-11-15T21:38:10.550Z,40.00
2017-11-15T21:40:38.376Z,37.43
2017-11-15T21:43:06.217Z,39.90
2017-11-15T21:45:34.049Z,39.50
2017-11-15T21:48:01.881Z,39.70
2017-11-15T21:50:29.694Z,42.30
2017-11-15T21:52:57.529Z,42.30
2017-11-15T21:55:25.379Z,41.20
2017-11-15T21:57:53.224Z,42.27
2017-11-15T22:00:21.074Z,37.93
2017-11-15T22:02:48.920Z,38.83
2017-11-15T22:05:16.778Z,40.63
2017-11-15T22:07:44.595Z,43.97
2017-11-15T22:10:12.461Z,41.77
2017-11-15T22:12:40.300Z,41.37
2017-11-15T22:15:08.139Z,38.70
2017-11-15T22:17:35.974Z,39.67
2017-11-15T22:20:03.826Z,36.27
2017-11-15T22:22:31.651Z,38.60
2017-11-15T22:24:59.502Z,36.10
2017-11-15T22:27:27.322Z,36.93
2017-11-15T22:29:55.157Z,36.00
2017-11-15T22:32:23.000Z,36.00
2017-11-15T22:34:50.893Z,37.57
2017-11-15T22:37:18.761Z,39.40
2017-11-15T22:39:46.575Z,39.97
2017-11-15T22:42:14.390Z,35.47
2017-11-15T22:44:42.218Z,36.80
2017-11-15T22:47:10.064Z,35.20
2017-11-15T22:49:37.907Z,39.83
2017-11-15T22:52:05.767Z,34.10
2017-11-15T22:54:33.602Z,33.83
2017-11-15T22:57:01.426Z,35.20
2017-11-15T22:59:29.253Z,36.07
2017-11-15T23:01:57.083Z,35.80
2017-11-15T23:04:24.950Z,37.60
2017-11-15T23:06:52.761Z,36.40
2017-11-15T23:09:20.674Z,35.33
2017-11-15T23:11:48.645Z,38.63
2017-11-15T23:14:16.479Z,35.93
2017-11-15T23:16:44.332Z,34.10
2017-11-15T23:19:12.178Z,32.43
2017-11-15T23:21:40.047Z,32.60
2017-11-15T23:24:07.904Z,33.80
2017-11-15T23:26:35.762Z,34.87
2017-11-15T23:29:03.582Z,32.80
2017-11-15T23:31:31.411Z,34.97
2017-11-15T23:33:59.233Z,32.00
2017-11-15T23:36:27.065Z,31.30
2017-11-15T23:38:54.890Z,30.33
2017-11-15T23:41:22.722Z,29.00
2017-11-15T23:43:50.546Z,31.33
2017-11-15T23:46:18.412Z,30.30
2017-11-15T23:48:46.280Z,29.97
2017-11-15T23:51:14.147Z,31.10
2017-11-15T23:53:41.981Z,28.47
2017-11-15T23:56:09.842Z,29.40
2017-11-15T23:58:37.694Z,32.40
